Aeroporto :
LOGIN :

Iscrizione | Disclaimer

   EN    FR    IT 

 










Sommario :    VFR   VFR Marginale   IFR   IFR Intensivo   IFR Molto Intensivo
Visibilità : 
Base nubi : 
>= 8 km
>= 3000ft
5 / 8 km
1000 / 3000 ft
1500m / 5 km
500 / 1000 ft
800 / 1500m
200 / 500 ft
< 800m
< 200 ft
Simboli :   Temporali  Nebbia  Neve Forte  Precipitazioni Forti  Vento > 20 kt
SIGMETs :   Varie  Temporali  Ghiacco  Turbolenza  Onda orograficha  Ceneri Vulcaniche






- Altitudine del aeroporto : 995 ft
- Codice IATA : KTW


EPKT - Katowice

ULTIMO METAR :
  • 190730Z 32001KT 2000 -SNRA BR FEW001 SCT024 01/00 Q1027

METARs OBSOLETI :
  • 190700Z 30002KT 2000 -SNRA BR FEW003 01/00 Q1027
  • 190630Z 29003KT 2500 -SNRA BR SCT004 BKN042 01/00 Q1027
  • 190600Z 30003KT 3000 -SNRA BR BKN003 OVC007 01/00 Q1026
  • 190530Z 31003KT 3300 -SNRA BR FEW004 BKN009 01/01 Q1026
  • 190500Z 31003KT 3800 -SNRA BR BKN007 01/01 Q1026

TAF TAF EPKT
Valido dal 19 a 06 ore il 20 a 06 ore UTC


190530Z 1906/2006 34006KT 6000 BKN016
TEMPO 1906/1918 1500 -RA BR BKN004 BKN010
PROB40
TEMPO 1906/1909 1200 -SNRA
BECMG 1918/1921 3000 BR
TEMPO 1918/2006 1100 -RASN BR BKN003 BKN006



MetMap, La meteo Aeronautica in un colpo d'occhio ! - Copyright ORBIFLY Dicembre 2007 - Disclaimer

ORBIFLY MET'MAP TEAM :

Programmazione e sviluppo : Alexandra Zaïnal
Concezione : Baudouin d'Aumeries
Aiuto per la programmazione : Marc-Olivier Méhu
Supporto tecnico e logistico : Manuel Goepfert
Aiuto per la traduzione : Arnaldo La Scala

Contatto : metmap@orbifly.com




FONTI E CREDITI :

   NOAA